createdAt,value
2017-11-29T00:00:10.530Z,69.90
2017-11-29T00:00:43.642Z,70.00
2017-11-29T00:01:17.385Z,70.10
2017-11-29T00:01:51.882Z,70.00
2017-11-29T00:02:26.381Z,70.00
2017-11-29T00:03:00.383Z,70.00
2017-11-29T00:03:34.905Z,70.20
2017-11-29T00:04:09.094Z,70.00
2017-11-29T00:04:42.834Z,69.80
2017-11-29T00:05:16.569Z,70.10
2017-11-29T00:05:50.743Z,71.00
2017-11-29T00:06:24.477Z,70.40
2017-11-29T00:06:58.968Z,70.30
2017-11-29T00:07:32.701Z,70.30
2017-11-29T00:08:06.468Z,70.60
2017-11-29T00:08:41.015Z,70.60
2017-11-29T00:09:14.758Z,70.60
2017-11-29T00:09:48.495Z,70.70
2017-11-29T00:10:22.253Z,70.80
2017-11-29T00:10:56.737Z,70.90
2017-11-29T00:11:30.460Z,70.90
2017-11-29T00:12:04.951Z,71.30
2017-11-29T00:12:39.444Z,71.30
2017-11-29T00:13:13.532Z,71.30
2017-11-29T00:13:46.920Z,71.20
2017-11-29T00:14:21.431Z,71.60
2017-11-29T00:14:55.173Z,71.60
2017-11-29T00:15:28.884Z,71.30
2017-11-29T00:16:02.627Z,71.30
2017-11-29T00:16:36.357Z,71.40
2017-11-29T00:17:10.086Z,71.30
2017-11-29T00:17:43.815Z,71.10
2017-11-29T00:18:18.336Z,71.20
2017-11-29T00:18:52.066Z,71.10
2017-11-29T00:19:25.788Z,71.20
2017-11-29T00:20:00.287Z,71.20
2017-11-29T00:20:33.688Z,71.10
2017-11-29T00:21:08.199Z,70.80
2017-11-29T00:21:42.682Z,70.80
2017-11-29T00:22:16.408Z,70.70
2017-11-29T00:22:50.130Z,70.80
2017-11-29T00:23:23.916Z,70.90
2017-11-29T00:23:57.642Z,70.70
2017-11-29T00:24:31.164Z,70.70
2017-11-29T00:25:05.663Z,70.70
2017-11-29T00:25:40.149Z,70.70
2017-11-29T00:26:13.878Z,70.60
2017-11-29T00:26:48.367Z,70.30
2017-11-29T00:27:22.108Z,70.30
2017-11-29T00:27:55.845Z,70.50
2017-11-29T00:28:30.365Z,70.30
2017-11-29T00:29:04.891Z,70.10
2017-11-29T00:29:38.629Z,70.00
2017-11-29T00:30:12.358Z,70.10
2017-11-29T00:30:46.537Z,70.20
2017-11-29T00:31:20.270Z,70.20
2017-11-29T00:31:54.325Z,70.10
2017-11-29T00:32:28.049Z,70.00
2017-11-29T00:33:02.577Z,70.20
2017-11-29T00:33:36.953Z,70.20
2017-11-29T00:34:11.450Z,69.80
2017-11-29T00:34:45.200Z,69.70
2017-11-29T00:35:18.294Z,70.40
2017-11-29T00:35:52.025Z,69.90
2017-11-29T00:36:25.866Z,70.00
2017-11-29T00:36:59.032Z,70.00
2017-11-29T00:37:32.440Z,69.80
2017-11-29T00:38:05.856Z,69.80
2017-11-29T00:38:40.022Z,69.50
2017-11-29T00:39:13.445Z,69.50
2017-11-29T00:39:47.951Z,69.50
2017-11-29T00:40:22.136Z,69.40
2017-11-29T00:40:55.206Z,69.40
2017-11-29T00:41:28.277Z,69.40
2017-11-29T00:42:02.014Z,69.60
2017-11-29T00:42:35.418Z,69.60
2017-11-29T00:43:09.146Z,69.40
2017-11-29T00:43:43.222Z,69.50
2017-11-29T00:44:16.952Z,69.70
2017-11-29T00:44:51.142Z,69.60
2017-11-29T00:45:25.342Z,70.20
2017-11-29T00:45:59.072Z,69.40
2017-11-29T00:46:32.801Z,69.50
2017-11-29T00:47:06.520Z,69.60
2017-11-29T00:47:40.260Z,69.80
2017-11-29T00:48:13.993Z,69.40
2017-11-29T00:48:48.073Z,69.70
2017-11-29T00:49:21.165Z,69.70
2017-11-29T00:49:54.907Z,69.70
2017-11-29T00:50:28.650Z,69.70
2017-11-29T00:51:02.370Z,69.60
2017-11-29T00:51:36.854Z,69.50
2017-11-29T00:52:10.259Z,69.50
2017-11-29T00:52:44.768Z,69.40
2017-11-29T00:53:18.525Z,69.40
2017-11-29T00:53:52.614Z,69.60
2017-11-29T00:54:26.020Z,69.70
2017-11-29T00:54:59.761Z,69.70
2017-11-29T00:55:33.490Z,69.70
2017-11-29T00:56:07.233Z,69.70
2017-11-29T00:56:40.954Z,69.60
2017-11-29T00:57:14.688Z,69.70
2017-11-29T00:57:49.197Z,69.80
2017-11-29T00:58:23.493Z,70.20
2017-11-29T00:58:57.049Z,69.70
2017-11-29T00:59:30.580Z,69.70
2017-11-29T01:00:04.886Z,69.50
2017-11-29T01:00:39.206Z,69.70
2017-11-29T01:01:12.733Z,69.70
2017-11-29T01:01:46.265Z,69.80
2017-11-29T01:02:20.565Z,69.50
2017-11-29T01:02:54.881Z,69.70
2017-11-29T01:03:28.425Z,69.70
2017-11-29T01:04:02.016Z,70.00
2017-11-29T01:04:35.567Z,69.80
2017-11-29T01:05:09.303Z,69.90
2017-11-29T01:05:43.278Z,69.80
2017-11-29T01:06:17.018Z,69.70
2017-11-29T01:06:50.764Z,69.70
2017-11-29T01:07:24.497Z,69.60
2017-11-29T01:07:59.001Z,70.00
2017-11-29T01:08:33.512Z,69.70
2017-11-29T01:09:08.383Z,69.90
2017-11-29T01:09:42.139Z,69.80
2017-11-29T01:10:15.878Z,69.80
2017-11-29T01:10:49.618Z,69.90
2017-11-29T01:11:23.348Z,70.10
2017-11-29T01:11:57.090Z,69.80
2017-11-29T01:12:30.829Z,69.90
2017-11-29T01:13:04.559Z,69.90
2017-11-29T01:13:39.082Z,70.20
2017-11-29T01:14:12.841Z,70.20
2017-11-29T01:14:46.574Z,70.20
2017-11-29T01:15:20.302Z,70.10
2017-11-29T01:15:54.037Z,70.00
2017-11-29T01:16:28.545Z,70.10
2017-11-29T01:17:02.294Z,70.10
2017-11-29T01:17:36.040Z,70.20
2017-11-29T01:18:09.783Z,70.30
2017-11-29T01:18:43.516Z,70.30
2017-11-29T01:19:18.064Z,70.30
2017-11-29T01:19:51.797Z,70.30
2017-11-29T01:20:25.533Z,70.20
2017-11-29T01:20:59.283Z,69.60
2017-11-29T01:21:33.788Z,70.40
2017-11-29T01:22:08.314Z,70.50
2017-11-29T01:22:42.104Z,70.40
2017-11-29T01:23:15.855Z,70.50
2017-11-29T01:23:49.569Z,70.50
2017-11-29T01:24:23.584Z,70.50
2017-11-29T01:24:58.088Z,70.50
2017-11-29T01:25:32.407Z,70.80
2017-11-29T01:26:06.138Z,70.80
2017-11-29T01:26:39.878Z,71.10
2017-11-29T01:27:14.392Z,70.90
2017-11-29T01:27:48.131Z,70.90
2017-11-29T01:28:21.869Z,71.00
2017-11-29T01:28:56.364Z,71.20
2017-11-29T01:29:30.908Z,71.20
2017-11-29T01:30:04.321Z,71.10
2017-11-29T01:30:38.067Z,71.10
2017-11-29T01:31:11.809Z,71.40
2017-11-29T01:31:45.544Z,71.40
2017-11-29T01:32:19.854Z,71.60
2017-11-29T01:32:53.619Z,71.60
2017-11-29T01:33:28.121Z,71.50
2017-11-29T01:34:01.947Z,71.50
2017-11-29T01:34:35.737Z,71.40
2017-11-29T01:35:10.268Z,71.30
2017-11-29T01:35:44.023Z,71.30
2017-11-29T01:36:18.535Z,71.60
2017-11-29T01:36:52.862Z,71.70
2017-11-29T01:37:26.609Z,71.70
2017-11-29T01:38:00.368Z,72.00
2017-11-29T01:38:34.108Z,71.90
2017-11-29T01:39:08.619Z,72.30
2017-11-29T01:39:42.981Z,71.70
2017-11-29T01:40:16.733Z,71.70
2017-11-29T01:40:50.474Z,71.90
2017-11-29T01:41:24.227Z,72.00
2017-11-29T01:41:57.984Z,71.90
2017-11-29T01:42:31.713Z,72.10
2017-11-29T01:43:05.471Z,72.20
2017-11-29T01:43:39.991Z,72.30
2017-11-29T01:44:13.611Z,72.90
2017-11-29T01:44:47.185Z,72.30
2017-11-29T01:45:20.938Z,72.30
2017-11-29T01:45:55.272Z,72.30
2017-11-29T01:46:29.029Z,72.30
2017-11-29T01:47:02.574Z,72.30
2017-11-29T01:47:36.129Z,72.30
2017-11-29T01:48:09.881Z,72.40
2017-11-29T01:48:43.636Z,72.70
2017-11-29T01:49:17.196Z,72.70
2017-11-29T01:49:51.740Z,72.70
2017-11-29T01:50:25.485Z,72.70
2017-11-29T01:50:59.997Z,72.70
2017-11-29T01:51:34.501Z,72.60
2017-11-29T01:52:09.014Z,72.50
2017-11-29T01:52:43.515Z,72.50
2017-11-29T01:53:18.028Z,72.70
2017-11-29T01:53:52.367Z,72.80
2017-11-29T01:54:25.921Z,72.60
2017-11-29T01:55:00.278Z,72.80
2017-11-29T01:55:34.035Z,72.70
2017-11-29T01:56:07.802Z,72.70
2017-11-29T01:56:42.003Z,73.00
2017-11-29T01:57:16.333Z,73.10
2017-11-29T01:57:50.085Z,73.00
2017-11-29T01:58:23.825Z,73.10
2017-11-29T01:58:57.580Z,73.10
2017-11-29T01:59:31.404Z,73.40
2017-11-29T02:00:05.178Z,73.30
2017-11-29T02:00:48.714Z,73.30
2017-11-29T02:01:22.196Z,73.20
2017-11-29T02:01:55.940Z,73.10
2017-11-29T02:02:29.683Z,73.10
2017-11-29T02:03:03.245Z,73.20
2017-11-29T02:03:37.753Z,73.20
2017-11-29T02:04:12.305Z,73.20
2017-11-29T02:04:46.048Z,73.20
2017-11-29T02:05:20.047Z,73.10
2017-11-29T02:05:53.915Z,73.40
2017-11-29T02:06:26.813Z,73.40
2017-11-29T02:07:00.562Z,73.40
2017-11-29T02:07:34.321Z,73.90
2017-11-29T02:08:08.828Z,73.40
2017-11-29T02:08:43.334Z,73.40
2017-11-29T02:09:17.842Z,73.40
2017-11-29T02:09:52.355Z,73.60
2017-11-29T02:10:26.918Z,73.20
2017-11-29T02:11:00.657Z,73.20
2017-11-29T02:11:35.166Z,73.20
2017-11-29T02:12:08.910Z,73.20
2017-11-29T02:12:42.648Z,72.90
2017-11-29T02:13:17.157Z,73.10
2017-11-29T02:13:51.670Z,72.80
2017-11-29T02:14:25.422Z,72.80
2017-11-29T02:14:59.162Z,72.70
2017-11-29T02:15:32.624Z,72.60
2017-11-29T02:16:07.174Z,72.50
2017-11-29T02:16:40.921Z,72.50
2017-11-29T02:17:15.436Z,72.30
2017-11-29T02:17:49.963Z,72.40
2017-11-29T02:18:23.726Z,72.40
2017-11-29T02:18:58.260Z,72.20
2017-11-29T02:19:31.694Z,72.00
2017-11-29T02:20:05.114Z,72.10
2017-11-29T02:20:39.078Z,72.10
2017-11-29T02:21:12.500Z,72.10
2017-11-29T02:21:46.348Z,72.10
2017-11-29T02:22:19.440Z,72.00
2017-11-29T02:22:52.517Z,71.90
2017-11-29T02:23:25.605Z,71.80
2017-11-29T02:23:58.682Z,71.80
2017-11-29T02:24:32.545Z,71.70
2017-11-29T02:25:05.669Z,71.70
2017-11-29T02:25:39.561Z,71.70
2017-11-29T02:26:13.414Z,71.60
2017-11-29T02:26:46.499Z,71.60
2017-11-29T02:27:19.565Z,71.50
2017-11-29T02:27:52.642Z,71.40
2017-11-29T02:28:26.052Z,71.60
2017-11-29T02:28:59.915Z,71.80
2017-11-29T02:29:32.990Z,71.70
2017-11-29T02:30:06.074Z,71.60
2017-11-29T02:30:40.435Z,71.60
2017-11-29T02:31:13.597Z,71.50
2017-11-29T02:31:46.687Z,71.50
2017-11-29T02:32:20.123Z,71.50
2017-11-29T02:32:53.213Z,71.40
2017-11-29T02:33:26.410Z,71.40
2017-11-29T02:33:59.486Z,71.40
2017-11-29T02:34:32.561Z,71.50
2017-11-29T02:35:05.633Z,71.50
2017-11-29T02:35:39.797Z,71.50
2017-11-29T02:36:12.883Z,71.50
2017-11-29T02:36:45.975Z,71.70
2017-11-29T02:37:19.822Z,71.60
2017-11-29T02:37:52.899Z,71.60
2017-11-29T02:38:26.316Z,71.70
2017-11-29T02:39:00.165Z,71.60
2017-11-29T02:40:45.165Z,71.40
2017-11-29T02:41:30.123Z,71.50
2017-11-29T02:42:15.068Z,71.50
2017-11-29T02:42:47.974Z,71.70
2017-11-29T02:43:21.081Z,71.40
2017-11-29T02:43:54.218Z,71.30
2017-11-29T02:44:28.069Z,71.50
2017-11-29T02:45:01.149Z,71.50
2017-11-29T02:45:34.701Z,71.50
2017-11-29T02:46:08.162Z,71.40
2017-11-29T02:46:42.018Z,71.40
2017-11-29T02:47:15.570Z,71.30
2017-11-29T02:47:48.650Z,71.20
2017-11-29T02:48:21.732Z,71.10
2017-11-29T02:48:54.829Z,71.20
2017-11-29T02:49:27.918Z,71.20
2017-11-29T02:50:01.030Z,71.30
2017-11-29T02:50:34.126Z,71.10
2017-11-29T02:51:07.237Z,71.00
2017-11-29T02:51:40.695Z,71.00
2017-11-29T02:52:13.793Z,71.10
2017-11-29T02:52:47.203Z,71.10
2017-11-29T02:53:21.719Z,71.10
2017-11-29T02:53:55.566Z,71.00
2017-11-29T02:54:28.682Z,70.90
2017-11-29T02:55:02.533Z,71.20
2017-11-29T02:55:35.646Z,71.10
2017-11-29T02:56:09.523Z,71.00
2017-11-29T02:56:42.647Z,71.00
2017-11-29T02:57:15.739Z,71.10
2017-11-29T02:57:48.824Z,71.20
2017-11-29T02:58:21.898Z,71.30
2017-11-29T02:58:54.798Z,71.30
2017-11-29T02:59:27.884Z,71.10
2017-11-29T03:00:00.965Z,71.20
2017-11-29T03:00:34.058Z,71.50
2017-11-29T03:01:07.908Z,71.50
2017-11-29T03:01:40.996Z,71.40
2017-11-29T03:02:14.114Z,71.50
2017-11-29T03:02:47.525Z,71.40
2017-11-29T03:03:21.392Z,71.50
2017-11-29T03:03:55.902Z,71.60
2017-11-29T03:04:30.409Z,71.80
2017-11-29T03:05:04.939Z,71.70
2017-11-29T03:05:38.734Z,71.70
2017-11-29T03:06:12.321Z,71.80
2017-11-29T03:06:45.876Z,71.90
2017-11-29T03:07:20.465Z,71.50
2017-11-29T03:07:54.974Z,71.40
2017-11-29T03:08:28.527Z,71.40
2017-11-29T03:09:02.091Z,71.50
2017-11-29T03:09:35.838Z,71.50
2017-11-29T03:10:09.585Z,71.70
2017-11-29T03:10:43.329Z,72.00
2017-11-29T03:11:17.087Z,71.80
2017-11-29T03:11:50.825Z,71.80
2017-11-29T03:12:25.454Z,71.50
2017-11-29T03:12:59.253Z,71.40
2017-11-29T03:13:33.002Z,71.50
2017-11-29T03:14:08.263Z,71.70
2017-11-29T03:14:42.025Z,71.70
2017-11-29T03:15:15.780Z,71.60
2017-11-29T03:15:49.537Z,71.30
2017-11-29T03:16:23.281Z,71.70
2017-11-29T03:16:57.043Z,71.70
2017-11-29T03:17:30.830Z,71.70
2017-11-29T03:18:05.016Z,71.70
2017-11-29T03:18:38.753Z,71.50
2017-11-29T03:19:14.030Z,71.70
2017-11-29T03:19:47.569Z,71.70
2017-11-29T03:20:21.338Z,71.80
2017-11-29T03:20:55.099Z,71.60
2017-11-29T03:21:28.830Z,71.70
2017-11-29T03:22:02.581Z,71.70
2017-11-29T03:22:36.177Z,71.70
2017-11-29T03:23:09.923Z,72.00
2017-11-29T03:23:43.752Z,72.00
2017-11-29T03:24:17.938Z,72.10
2017-11-29T03:24:52.453Z,72.00
2017-11-29T03:25:26.246Z,71.90
2017-11-29T03:26:00.760Z,72.00
2017-11-29T03:26:35.268Z,72.00
2017-11-29T03:27:09.781Z,72.00
2017-11-29T03:27:43.912Z,71.90
2017-11-29T03:28:17.649Z,71.90
2017-11-29T03:28:51.393Z,71.90
2017-11-29T03:29:25.129Z,72.40
2017-11-29T03:29:58.543Z,71.70
2017-11-29T03:30:32.293Z,71.70
2017-11-29T03:31:06.047Z,71.70
2017-11-29T03:31:39.808Z,71.70
2017-11-29T03:32:14.323Z,71.40
2017-11-29T03:32:48.978Z,71.50
2017-11-29T03:33:22.737Z,71.50
2017-11-29T03:33:56.481Z,71.70
2017-11-29T03:34:30.310Z,71.60
2017-11-29T03:35:04.824Z,71.70
2017-11-29T03:35:38.580Z,71.70
2017-11-29T03:36:12.373Z,71.70
2017-11-29T03:36:46.119Z,71.90
2017-11-29T03:37:19.869Z,72.00
2017-11-29T03:37:54.415Z,72.00
2017-11-29T03:38:28.175Z,72.00
2017-11-29T03:39:02.686Z,72.10
2017-11-29T03:39:37.184Z,72.10
2017-11-29T03:40:10.923Z,72.10
2017-11-29T03:40:44.721Z,72.00
2017-11-29T03:41:18.455Z,72.10
2017-11-29T03:41:52.962Z,71.80
2017-11-29T03:42:27.477Z,71.80
2017-11-29T03:43:01.569Z,71.80
2017-11-29T03:43:35.326Z,71.90
2017-11-29T03:44:09.073Z,71.80
2017-11-29T03:44:44.181Z,71.90
2017-11-29T03:45:18.684Z,71.80
2017-11-29T03:45:52.098Z,71.70
2017-11-29T03:46:25.910Z,71.80
2017-11-29T03:46:59.666Z,71.70
2017-11-29T03:47:34.161Z,71.70
2017-11-29T03:48:08.255Z,71.70
2017-11-29T03:48:42.001Z,71.60
2017-11-29T03:49:15.758Z,71.50
2017-11-29T03:49:50.292Z,71.70
2017-11-29T03:50:24.060Z,71.70
2017-11-29T03:50:58.572Z,71.40
2017-11-29T03:51:33.097Z,71.70
2017-11-29T03:52:06.854Z,71.60
2017-11-29T03:52:40.659Z,71.40
2017-11-29T03:53:15.211Z,71.80
2017-11-29T03:53:48.963Z,71.70
2017-11-29T03:54:23.473Z,71.70
2017-11-29T03:54:57.991Z,71.80
2017-11-29T03:55:32.501Z,71.70
2017-11-29T03:56:06.280Z,71.70
2017-11-29T03:56:40.789Z,71.70
2017-11-29T03:57:15.901Z,71.80
2017-11-29T03:57:49.646Z,71.80
2017-11-29T03:58:23.653Z,72.50
2017-11-29T03:58:57.407Z,72.10
2017-11-29T03:59:31.142Z,71.90
2017-11-29T04:00:04.555Z,71.90
2017-11-29T04:00:39.077Z,71.40
2017-11-29T04:01:13.705Z,72.70
2017-11-29T04:01:47.471Z,72.00
2017-11-29T04:02:21.990Z,71.80
2017-11-29T04:02:56.552Z,71.80
2017-11-29T04:03:30.345Z,71.80
2017-11-29T04:04:04.094Z,71.70
2017-11-29T04:04:38.617Z,71.70
2017-11-29T04:05:12.357Z,71.70
2017-11-29T04:05:46.095Z,71.60
2017-11-29T04:06:19.887Z,71.60
2017-11-29T04:06:54.063Z,71.80
2017-11-29T04:07:27.467Z,71.80
2017-11-29T04:08:00.546Z,72.40
2017-11-29T04:08:34.318Z,71.70
2017-11-29T04:09:08.503Z,71.50
2017-11-29T04:09:41.576Z,71.50
2017-11-29T04:10:14.657Z,71.60
2017-11-29T04:10:47.733Z,71.60
2017-11-29T04:11:20.836Z,71.70
2017-11-29T04:11:54.670Z,71.80
2017-11-29T04:12:27.753Z,71.80
2017-11-29T04:13:01.173Z,71.70
2017-11-29T04:13:36.017Z,71.80
2017-11-29T04:14:09.428Z,71.80
2017-11-29T04:14:43.185Z,71.70
2017-11-29T04:15:16.270Z,71.80
2017-11-29T04:15:49.350Z,71.80
2017-11-29T04:16:23.085Z,71.80
2017-11-29T04:16:56.179Z,71.70
2017-11-29T04:17:29.687Z,71.50
2017-11-29T04:18:03.106Z,71.50
2017-11-29T04:18:36.885Z,71.50
2017-11-29T04:19:10.634Z,71.50
2017-11-29T04:19:44.513Z,71.70
2017-11-29T04:20:17.593Z,71.70
2017-11-29T04:20:51.780Z,71.70
2017-11-29T04:21:25.203Z,71.70
2017-11-29T04:21:59.389Z,71.70
2017-11-29T04:22:33.979Z,72.30
2017-11-29T04:23:07.051Z,71.70
2017-11-29T04:23:40.842Z,71.60
2017-11-29T04:24:13.936Z,71.60
2017-11-29T04:24:47.018Z,71.60
2017-11-29T04:25:20.422Z,71.60
2017-11-29T04:25:53.842Z,71.60
2017-11-29T04:26:27.250Z,71.70
2017-11-29T04:27:00.338Z,71.70
2017-11-29T04:27:34.519Z,71.80
2017-11-29T04:28:07.595Z,71.80
2017-11-29T04:28:41.077Z,71.80
2017-11-29T04:29:14.154Z,71.70
2017-11-29T04:29:47.573Z,71.70
2017-11-29T04:30:21.562Z,71.90
2017-11-29T04:30:56.085Z,71.90
2017-11-29T04:31:30.603Z,71.80
2017-11-29T04:32:05.118Z,71.70
2017-11-29T04:32:38.861Z,71.80
2017-11-29T04:33:12.617Z,71.70
2017-11-29T04:33:46.395Z,71.80
2017-11-29T04:34:21.990Z,72.10
2017-11-29T04:34:55.737Z,72.10
2017-11-29T04:35:29.506Z,72.00
2017-11-29T04:36:04.009Z,72.00
2017-11-29T04:36:38.518Z,71.90
2017-11-29T04:37:12.076Z,71.90
2017-11-29T04:37:45.634Z,72.00
2017-11-29T04:38:19.190Z,72.80
2017-11-29T04:38:53.246Z,72.20
2017-11-29T04:39:27.002Z,72.30
2017-11-29T04:40:00.770Z,72.20
2017-11-29T04:40:34.510Z,72.10
2017-11-29T04:41:08.269Z,72.00
2017-11-29T04:41:42.018Z,72.60
2017-11-29T04:42:16.543Z,72.00
2017-11-29T04:42:51.079Z,72.10
2017-11-29T04:43:24.643Z,72.10
2017-11-29T04:43:58.600Z,72.40
2017-11-29T04:44:32.352Z,72.30
2017-11-29T04:45:06.130Z,72.30
2017-11-29T04:45:40.651Z,72.40
2017-11-29T04:46:14.423Z,72.50
2017-11-29T04:46:48.928Z,72.30
2017-11-29T04:47:23.442Z,72.40
2017-11-29T04:47:57.182Z,72.40
2017-11-29T04:48:30.274Z,72.30
2017-11-29T04:49:03.665Z,72.10
2017-11-29T04:49:36.741Z,72.90
2017-11-29T04:50:10.597Z,72.00
2017-11-29T04:50:43.690Z,72.00
2017-11-29T04:51:16.767Z,72.10
2017-11-29T04:51:50.166Z,72.30
2017-11-29T04:52:24.010Z,72.20
2017-11-29T04:52:57.100Z,72.10
2017-11-29T04:53:30.181Z,72.30
2017-11-29T04:54:03.883Z,72.50
2017-11-29T04:54:36.977Z,72.40
2017-11-29T04:55:10.385Z,72.30
2017-11-29T04:55:44.235Z,72.30
2017-11-29T04:56:18.072Z,72.30
2017-11-29T04:56:52.273Z,72.30
2017-11-29T04:57:25.701Z,72.30
2017-11-29T04:57:59.110Z,72.50
2017-11-29T04:58:32.329Z,72.40
2017-11-29T04:59:05.368Z,72.50
2017-11-29T04:59:38.454Z,72.70
2017-11-29T05:00:12.645Z,72.40
2017-11-29T05:00:45.729Z,72.30
2017-11-29T05:01:20.209Z,72.00
2017-11-29T05:01:53.303Z,72.20
2017-11-29T05:02:26.381Z,72.40
2017-11-29T05:02:59.804Z,72.30
2017-11-29T05:03:32.709Z,72.30
2017-11-29T05:04:06.161Z,72.30
2017-11-29T05:04:39.574Z,72.40
2017-11-29T05:05:13.322Z,72.20
2017-11-29T05:05:46.398Z,72.20
2017-11-29T05:06:19.294Z,72.30
2017-11-29T05:06:52.380Z,72.30
2017-11-29T05:07:25.453Z,72.30
2017-11-29T05:07:58.852Z,72.40
2017-11-29T05:08:31.753Z,72.50
2017-11-29T05:09:04.839Z,72.60
2017-11-29T05:09:38.701Z,72.40
2017-11-29T05:10:12.229Z,72.40
2017-11-29T05:10:46.402Z,72.60
2017-11-29T05:11:19.323Z,72.60
2017-11-29T05:11:52.233Z,72.70
2017-11-29T05:12:25.350Z,72.50
2017-11-29T05:12:58.435Z,72.40
2017-11-29T05:13:31.846Z,72.50
2017-11-29T05:14:04.746Z,72.50
2017-11-29T05:14:38.471Z,72.60
2017-11-29T05:15:11.544Z,72.50
2017-11-29T05:15:45.439Z,72.50
2017-11-29T05:16:18.871Z,72.40
2017-11-29T05:16:51.954Z,72.50
2017-11-29T05:17:25.037Z,72.60
2017-11-29T05:17:58.111Z,72.60
2017-11-29T05:18:31.191Z,72.60
2017-11-29T05:19:04.600Z,72.60
2017-11-29T05:19:38.748Z,72.90
2017-11-29T05:20:11.834Z,72.90
2017-11-29T05:20:44.752Z,72.90
2017-11-29T05:21:18.632Z,72.60
2017-11-29T05:21:52.481Z,72.40
2017-11-29T05:22:25.556Z,72.30
2017-11-29T05:22:58.877Z,72.40
2017-11-29T05:23:32.717Z,72.70
2017-11-29T05:24:06.116Z,72.60
2017-11-29T05:24:39.247Z,72.60
2017-11-29T05:25:13.093Z,72.40
2017-11-29T05:25:46.169Z,72.60
2017-11-29T05:26:19.070Z,72.50
2017-11-29T05:26:52.291Z,72.40
2017-11-29T05:27:25.361Z,72.30
2017-11-29T05:27:58.451Z,72.30
2017-11-29T05:28:31.858Z,72.40
2017-11-29T05:29:04.975Z,72.50
2017-11-29T05:29:39.291Z,72.60
2017-11-29T05:30:12.945Z,72.60
2017-11-29T05:30:45.839Z,72.60
2017-11-29T05:31:19.676Z,72.60
2017-11-29T05:31:53.417Z,72.50
2017-11-29T05:32:26.634Z,72.40
2017-11-29T05:32:59.868Z,72.50
2017-11-29T05:33:32.750Z,72.50
2017-11-29T05:34:06.585Z,72.40
2017-11-29T05:34:39.805Z,72.40
2017-11-29T05:35:12.892Z,72.30
2017-11-29T05:35:47.076Z,72.30
2017-11-29T05:36:19.965Z,72.30
2017-11-29T05:36:52.841Z,72.40
2017-11-29T05:37:26.678Z,72.40
2017-11-29T05:37:59.735Z,72.40
2017-11-29T05:38:33.003Z,72.30
2017-11-29T05:39:06.986Z,72.40
2017-11-29T05:39:41.157Z,72.40
2017-11-29T05:40:14.564Z,72.40
2017-11-29T05:40:47.649Z,72.40
2017-11-29T05:41:21.486Z,72.50
2017-11-29T05:41:54.562Z,72.40
2017-11-29T05:42:27.999Z,72.50
2017-11-29T05:43:01.845Z,72.40
2017-11-29T05:43:34.941Z,72.40
2017-11-29T05:44:08.345Z,72.40
2017-11-29T05:44:41.546Z,72.40
2017-11-29T05:45:15.548Z,72.50
2017-11-29T05:45:48.444Z,72.40
2017-11-29T05:46:21.926Z,72.40
2017-11-29T05:46:55.026Z,72.40
2017-11-29T05:47:28.868Z,72.40
2017-11-29T05:48:01.956Z,72.30
2017-11-29T05:48:35.023Z,72.30
2017-11-29T05:49:08.113Z,72.30
2017-11-29T05:49:42.182Z,72.30
2017-11-29T05:50:16.019Z,72.30
2017-11-29T05:50:49.100Z,72.30
2017-11-29T05:51:22.190Z,72.30
2017-11-29T05:51:55.596Z,72.30
2017-11-29T05:52:28.666Z,72.30
2017-11-29T05:53:01.767Z,72.30
2017-11-29T05:53:35.731Z,72.40
2017-11-29T05:54:08.824Z,72.30
2017-11-29T05:54:41.902Z,72.40
2017-11-29T05:55:16.120Z,72.40
2017-11-29T05:55:49.976Z,72.30
2017-11-29T05:56:23.398Z,72.40
2017-11-29T05:56:57.244Z,72.40
2017-11-29T05:57:30.657Z,72.40
2017-11-29T05:58:04.834Z,73.10
2017-11-29T05:58:38.254Z,72.50
2017-11-29T05:59:12.449Z,72.50
2017-11-29T05:59:46.632Z,72.40
2017-11-29T06:00:19.921Z,72.40
2017-11-29T06:00:52.997Z,72.30
2017-11-29T06:01:27.190Z,72.10
2017-11-29T06:02:00.275Z,72.10
2017-11-29T06:02:33.276Z,72.20
2017-11-29T06:03:06.375Z,72.20
2017-11-29T06:03:39.441Z,72.10
2017-11-29T06:04:13.006Z,72.20
2017-11-29T06:04:46.666Z,72.20
2017-11-29T06:05:19.967Z,72.20
2017-11-29T06:05:53.969Z,72.10
2017-11-29T06:06:28.166Z,72.10
2017-11-29T06:07:02.349Z,72.20
2017-11-29T06:07:35.252Z,72.20
2017-11-29T06:08:09.000Z,72.20
2017-11-29T06:08:42.085Z,72.20
2017-11-29T06:09:15.174Z,72.20
2017-11-29T06:09:49.364Z,72.20
2017-11-29T06:10:22.483Z,72.10
2017-11-29T06:10:56.234Z,72.10
2017-11-29T06:11:29.661Z,72.10
2017-11-29T06:12:03.069Z,72.10
2017-11-29T06:12:36.508Z,72.10
2017-11-29T06:13:11.315Z,72.20
2017-11-29T06:13:45.494Z,72.20
2017-11-29T06:14:18.566Z,72.10
2017-11-29T06:14:51.981Z,72.00
2017-11-29T06:15:26.191Z,72.10
2017-11-29T06:16:00.690Z,72.00
2017-11-29T06:16:35.212Z,72.10
2017-11-29T06:17:08.631Z,72.10
2017-11-29T06:17:42.371Z,72.10
2017-11-29T06:18:16.098Z,72.00
2017-11-29T06:18:48.979Z,72.00
2017-11-29T06:19:22.390Z,72.10
2017-11-29T06:19:56.146Z,72.10
2017-11-29T06:20:29.600Z,72.10
2017-11-29T06:21:04.122Z,72.20
2017-11-29T06:21:37.294Z,72.20
2017-11-29T06:22:11.142Z,72.10
2017-11-29T06:22:44.230Z,72.00
2017-11-29T06:23:17.976Z,72.00
2017-11-29T06:23:51.064Z,72.10
2017-11-29T06:24:24.797Z,72.10
2017-11-29T06:24:59.355Z,72.10
2017-11-29T06:25:33.503Z,72.10
2017-11-29T06:26:07.050Z,72.10
2017-11-29T06:26:40.812Z,72.10
2017-11-29T06:27:14.232Z,72.10
2017-11-29T06:27:47.641Z,72.10
2017-11-29T06:28:21.051Z,72.20
2017-11-29T06:28:55.466Z,72.10
2017-11-29T06:29:30.078Z,72.10
2017-11-29T06:30:03.500Z,72.00
2017-11-29T06:30:37.634Z,72.00
2017-11-29T06:31:11.192Z,72.10
2017-11-29T06:31:45.786Z,72.00
2017-11-29T06:32:19.535Z,72.10
2017-11-29T06:32:54.041Z,72.00
2017-11-29T06:33:28.558Z,72.30
2017-11-29T06:34:02.873Z,72.10
2017-11-29T06:34:37.280Z,72.10
2017-11-29T06:35:11.791Z,72.10
2017-11-29T06:35:46.321Z,72.00
2017-11-29T06:36:20.051Z,72.00
2017-11-29T06:36:53.789Z,72.10
2017-11-29T06:37:27.270Z,72.00
2017-11-29T06:38:01.007Z,72.00
2017-11-29T06:38:34.746Z,72.00
2017-11-29T06:39:10.043Z,72.00
2017-11-29T06:39:43.795Z,72.00
2017-11-29T06:40:17.546Z,72.00
2017-11-29T06:40:51.361Z,71.90
2017-11-29T06:41:25.080Z,71.80
2017-11-29T06:41:58.817Z,71.90
2017-11-29T06:42:33.330Z,71.90
2017-11-29T06:43:07.837Z,71.90
2017-11-29T06:43:42.499Z,71.80
2017-11-29T06:44:16.240Z,71.80
2017-11-29T06:44:49.971Z,71.70
2017-11-29T06:45:23.730Z,71.70
2017-11-29T06:45:57.790Z,71.60
2017-11-29T06:46:31.538Z,71.70
2017-11-29T06:47:04.982Z,71.70
2017-11-29T06:47:38.748Z,71.70
2017-11-29T06:48:12.496Z,71.70
2017-11-29T06:48:46.235Z,71.60
2017-11-29T06:49:19.986Z,71.50
2017-11-29T06:49:53.749Z,71.60
2017-11-29T06:50:27.486Z,71.40
2017-11-29T06:51:01.245Z,71.50
2017-11-29T06:51:35.738Z,71.60
2017-11-29T06:52:10.247Z,71.40
2017-11-29T06:52:43.985Z,71.40
2017-11-29T06:53:17.733Z,71.50
2017-11-29T06:53:51.540Z,71.40
2017-11-29T06:54:26.052Z,71.40
2017-11-29T06:54:59.798Z,71.90
2017-11-29T06:55:33.560Z,71.30
2017-11-29T06:56:07.329Z,71.40
2017-11-29T06:56:42.124Z,71.30
2017-11-29T06:57:16.635Z,71.30
2017-11-29T06:57:51.147Z,71.20
2017-11-29T06:58:25.669Z,71.10
2017-11-29T06:59:00.184Z,71.20
2017-11-29T06:59:33.949Z,71.20
2017-11-29T07:00:08.521Z,71.20
2017-11-29T07:00:42.297Z,71.20
2017-11-29T07:01:16.441Z,71.20
2017-11-29T07:01:49.889Z,71.30
2017-11-29T07:02:23.630Z,71.30
2017-11-29T07:02:58.157Z,71.40
2017-11-29T07:03:31.913Z,71.90
2017-11-29T07:04:05.644Z,71.20
2017-11-29T07:04:39.407Z,71.20
2017-11-29T07:05:13.972Z,71.40
2017-11-29T07:05:47.737Z,71.20
2017-11-29T07:06:22.294Z,71.20
2017-11-29T07:06:56.042Z,71.20
2017-11-29T07:07:29.804Z,71.20
2017-11-29T07:08:04.331Z,71.10
2017-11-29T07:08:38.830Z,71.20
2017-11-29T07:09:13.357Z,71.10
2017-11-29T07:09:47.106Z,71.10
2017-11-29T07:10:20.837Z,71.20
2017-11-29T07:10:54.591Z,71.30
2017-11-29T07:11:28.397Z,71.20
2017-11-29T07:12:02.487Z,71.10
2017-11-29T07:12:36.263Z,71.30
2017-11-29T07:13:10.044Z,71.20
2017-11-29T07:13:43.810Z,71.20
2017-11-29T07:14:17.572Z,71.30
2017-11-29T07:14:52.087Z,71.30
2017-11-29T07:15:25.842Z,71.30
2017-11-29T07:15:59.586Z,71.30
2017-11-29T07:16:33.356Z,71.40